Airfield :
LOGIN :

Register | Disclaimer

   EN    FR    IT 

 










Legend :    VFR   Marginal VFR   IFR   Intensive IFR   Very Intensive IFR
Visi :
Ceiling :
>= 8 km
>= 3000ft
5 to 8 km
1000 to 3000 ft
1500m to 5 km
500 to 1000 ft
800 to 1500m
200 to 500 ft
< 800m
< 200 ft
Symbols :   Thunderstorms  Fog  Heavy snow  Heavy precipitations  Wind > 20 kt
SIGMETs :     Misc.  Thunderstorms  Icing  Turbulence  Mountain Waves  Volcanic Ashes







- Airport Elevation : 154 ft
- IATA code : SZZ


EPSC - Szczecin Goleniow

CURRENT METAR :
  • 131530Z 21005KT 170V230 7000 FEW003 10/09 Q1021

EXPIRED METARs :
  • 131500Z 22005KT 190V260 9999 FEW003 SCT005 BKN049 10/09 Q1021
  • 131430Z 21004KT 180V240 9999 FEW004 10/09 Q1020
  • 131400Z 23004KT 190V270 8000 FEW004 BKN006 10/09 Q1020
  • 131330Z 23004KT 190V260 6000 FEW004 BKN005 10/09 Q1020
  • 131300Z 25005KT 200V270 3500 -RA BR FEW004 OVC006 10/09 Q1020

TAF TAF EPSC
Valid from the 13 at 12:00 until the 14 at 12:00 UTC


131130Z 1312/1412 VRB03KT 4000 -RA BR OVC006
PROB40 1312/1314 2000 -RA BR BKN002
BECMG 1314/1316 27010KT 6000 BKN012
PROB40
TEMPO 1314/1322 SHRA BKN006 BKN010CB
PROB40 1400/1408 BKN004
No reported NOTAMs for that airfield.



MET'MAP, your aeronautical weather chart ! - Copyright ORBIFLY December 2007 - Disclaimer

ORBIFLY MET'MAP TEAM :

Programming & Development : Alexandra Zaïnal
Concept & Development : Baudouin d'Aumeries
Co-Development & Prog : Marc-Olivier Méhu
Technical & hardware support : Manuel Goepfert

Contact : metmap@orbifly.com




SOURCES & CREDITS :

   NOAA